Aérodrome :
LOGIN :

S'inscrire | Disclaimer

   EN    FR    IT 

 










Légende :    VFR   VFR Marginal   IFR   IFR Intensif   IFR Très Intensif
Visi : 
Plafond : 
>= 8 km
>= 3000ft
5 à 8 km
1000 à 3000 ft
1500m à 5 km
500 à 1000 ft
800 à 1500m
200 à 500 ft
< 800m
< 200 ft
Symboles :   Orages  Brouillard  Fortes neiges  Fortes précipitations  Vent > 20 kt
SIGMETs :   Divers  Orages  Givrage  Turbulence  Onde Orograph.  Cendres Volcan.







- Altitude de l'aérodrome : 24 ft
- Code IATA : IBZ


LEIB - Ibiza

DERNIER METAR :
  • 230000Z 36004KT CAVOK 16/14 Q1024 NOSIG

METARs EXPIRÉS :
  • 222330Z 34006KT 9999 FEW020 16/15 Q1025 NOSIG
  • 222300Z 35005KT 9999 FEW020 16/15 Q1025 NOSIG
  • 222230Z 35005KT 9999 FEW017 16/15 Q1025 NOSIG
  • 222200Z 35005KT 9999 FEW017 16/15 Q1025 NOSIG
  • 222130Z VRB01KT 9999 FEW017 16/15 Q1025 NOSIG

TAF TAF LEIB
Valide du 22 à 21h jusqu'au 23 à 21h UTC


222000Z 2221/2321 33004KT 9999 SCT025 TX22/2312Z TN14/2306Z
Pas de NOTAMs connus pour ce terrain.



MET'MAP, la Météo Aéronautique d'un coup d'oeil ! - Copyright ORBIFLY Décembre 2007 - Disclaimer

ORBIFLY MET'MAP TEAM :

Programmation & Développement : Alexandra Zaïnal
Conception & Développement : Baudouin d'Aumeries
Co-Programmation & Développement : Marc-Olivier Méhu
Soutien technique & logistique : Manuel Goepfert

Contact : metmap@orbifly.com




SOURCES & CREDITS :

   NOAA